sensor_id;sensor_type;location;lat;lon;timestamp;P1;durP1;ratioP1;P2;durP2;ratioP2
23388;SDS011;11867;51.198;11.966;2023-08-12T00:00:55;9.02;;;5.82;;
23388;SDS011;11867;51.198;11.966;2023-08-12T00:02:18;12.68;;;6.88;;
23388;SDS011;11867;51.198;11.966;2023-08-12T00:03:40;11.75;;;6.70;;
23388;SDS011;11867;51.198;11.966;2023-08-12T00:05:04;10.75;;;7.80;;
23388;SDS011;11867;51.198;11.966;2023-08-12T00:06:26;13.18;;;8.15;;
23388;SDS011;11867;51.198;11.966;2023-08-12T00:07:51;15.18;;;7.78;;
23388;SDS011;11867;51.198;11.966;2023-08-12T00:09:13;13.68;;;8.15;;
23388;SDS011;11867;51.198;11.966;2023-08-12T00:10:37;13.18;;;8.05;;
23388;SDS011;11867;51.198;11.966;2023-08-12T00:11:59;11.63;;;8.32;;
23388;SDS011;11867;51.198;11.966;2023-08-12T00:13:22;11.80;;;9.07;;
23388;SDS011;11867;51.198;11.966;2023-08-12T00:14:44;11.77;;;8.52;;
23388;SDS011;11867;51.198;11.966;2023-08-12T00:16:08;14.90;;;8.93;;
23388;SDS011;11867;51.198;11.966;2023-08-12T00:17:30;12.90;;;8.38;;
23388;SDS011;11867;51.198;11.966;2023-08-12T00:18:53;12.73;;;8.48;;
23388;SDS011;11867;51.198;11.966;2023-08-12T00:20:15;10.25;;;7.85;;
23388;SDS011;11867;51.198;11.966;2023-08-12T00:21:38;16.95;;;9.57;;
23388;SDS011;11867;51.198;11.966;2023-08-12T00:23:02;10.38;;;5.55;;
23388;SDS011;11867;51.198;11.966;2023-08-12T00:24:26;8.63;;;6.90;;
23388;SDS011;11867;51.198;11.966;2023-08-12T00:25:48;9.38;;;5.60;;
23388;SDS011;11867;51.198;11.966;2023-08-12T00:27:12;8.25;;;5.85;;
23388;SDS011;11867;51.198;11.966;2023-08-12T00:28:34;10.18;;;6.45;;
23388;SDS011;11867;51.198;11.966;2023-08-12T00:29:57;9.15;;;5.45;;
23388;SDS011;11867;51.198;11.966;2023-08-12T00:31:19;8.63;;;6.15;;
23388;SDS011;11867;51.198;11.966;2023-08-12T00:32:42;12.10;;;5.40;;
23388;SDS011;11867;51.198;11.966;2023-08-12T00:34:04;7.95;;;5.55;;
23388;SDS011;11867;51.198;11.966;2023-08-12T00:35:28;12.98;;;6.43;;
23388;SDS011;11867;51.198;11.966;2023-08-12T00:36:50;14.13;;;7.90;;
23388;SDS011;11867;51.198;11.966;2023-08-12T00:38:14;11.10;;;6.20;;
23388;SDS011;11867;51.198;11.966;2023-08-12T00:39:36;10.82;;;6.25;;
23388;SDS011;11867;51.198;11.966;2023-08-12T00:40:59;8.13;;;6.20;;
23388;SDS011;11867;51.198;11.966;2023-08-12T00:42:21;11.98;;;6.55;;
23388;SDS011;11867;51.198;11.966;2023-08-12T00:43:44;9.82;;;6.22;;
23388;SDS011;11867;51.198;11.966;2023-08-12T00:45:08;11.32;;;5.82;;
23388;SDS011;11867;51.198;11.966;2023-08-12T00:46:32;12.57;;;5.82;;
23388;SDS011;11867;51.198;11.966;2023-08-12T00:47:56;9.60;;;5.38;;
23388;SDS011;11867;51.198;11.966;2023-08-12T00:49:18;7.07;;;4.35;;
23388;SDS011;11867;51.198;11.966;2023-08-12T00:50:42;8.75;;;4.85;;
23388;SDS011;11867;51.198;11.966;2023-08-12T00:52:04;6.97;;;4.47;;
23388;SDS011;11867;51.198;11.966;2023-08-12T00:53:29;9.23;;;4.90;;
23388;SDS011;11867;51.198;11.966;2023-08-12T00:54:51;8.82;;;5.30;;
23388;SDS011;11867;51.198;11.966;2023-08-12T00:56:15;6.63;;;5.15;;
23388;SDS011;11867;51.198;11.966;2023-08-12T00:57:38;10.52;;;4.60;;
23388;SDS011;11867;51.198;11.966;2023-08-12T00:59:01;8.68;;;5.32;;
23388;SDS011;11867;51.198;11.966;2023-08-12T01:00:26;8.50;;;5.55;;
23388;SDS011;11867;51.198;11.966;2023-08-12T01:01:49;7.47;;;4.80;;
23388;SDS011;11867;51.198;11.966;2023-08-12T01:03:11;8.65;;;5.18;;
23388;SDS011;11867;51.198;11.966;2023-08-12T01:04:34;8.75;;;5.63;;
23388;SDS011;11867;51.198;11.966;2023-08-12T01:05:56;11.50;;;5.35;;
23388;SDS011;11867;51.198;11.966;2023-08-12T01:07:19;8.05;;;4.90;;
23388;SDS011;11867;51.198;11.966;2023-08-12T01:08:43;6.60;;;4.35;;
23388;SDS011;11867;51.198;11.966;2023-08-12T01:10:07;8.95;;;4.63;;
23388;SDS011;11867;51.198;11.966;2023-08-12T01:11:34;9.68;;;4.65;;
23388;SDS011;11867;51.198;11.966;2023-08-12T01:13:03;7.28;;;4.30;;
23388;SDS011;11867;51.198;11.966;2023-08-12T01:14:33;10.23;;;5.20;;
23388;SDS011;11867;51.198;11.966;2023-08-12T01:16:04;8.52;;;5.50;;
23388;SDS011;11867;51.198;11.966;2023-08-12T01:17:29;5.82;;;5.22;;
23388;SDS011;11867;51.198;11.966;2023-08-12T01:18:56;10.65;;;5.93;;
23388;SDS011;11867;51.198;11.966;2023-08-12T01:20:19;6.38;;;5.40;;
23388;SDS011;11867;51.198;11.966;2023-08-12T01:21:46;6.70;;;5.68;;
23388;SDS011;11867;51.198;11.966;2023-08-12T01:23:12;8.23;;;5.28;;
23388;SDS011;11867;51.198;11.966;2023-08-12T01:24:37;7.05;;;5.93;;
23388;SDS011;11867;51.198;11.966;2023-08-12T01:26:00;9.82;;;5.38;;
23388;SDS011;11867;51.198;11.966;2023-08-12T01:27:23;12.80;;;5.00;;
23388;SDS011;11867;51.198;11.966;2023-08-12T01:28:45;5.80;;;4.88;;
23388;SDS011;11867;51.198;11.966;2023-08-12T01:30:09;7.45;;;4.75;;
23388;SDS011;11867;51.198;11.966;2023-08-12T01:31:34;6.55;;;4.95;;
23388;SDS011;11867;51.198;11.966;2023-08-12T01:33:07;6.75;;;5.05;;
23388;SDS011;11867;51.198;11.966;2023-08-12T01:36:06;8.32;;;4.65;;
23388;SDS011;11867;51.198;11.966;2023-08-12T01:37:32;10.00;;;5.70;;
23388;SDS011;11867;51.198;11.966;2023-08-12T01:38:57;6.18;;;5.15;;
23388;SDS011;11867;51.198;11.966;2023-08-12T01:40:25;8.25;;;5.15;;
23388;SDS011;11867;51.198;11.966;2023-08-12T01:41:51;6.45;;;4.95;;
23388;SDS011;11867;51.198;11.966;2023-08-12T01:43:15;8.95;;;5.03;;
23388;SDS011;11867;51.198;11.966;2023-08-12T01:44:38;10.93;;;5.22;;
23388;SDS011;11867;51.198;11.966;2023-08-12T01:46:00;7.70;;;5.10;;
23388;SDS011;11867;51.198;11.966;2023-08-12T01:47:24;6.95;;;4.90;;
23388;SDS011;11867;51.198;11.966;2023-08-12T01:48:46;9.60;;;5.18;;
23388;SDS011;11867;51.198;11.966;2023-08-12T01:50:09;5.10;;;4.25;;
23388;SDS011;11867;51.198;11.966;2023-08-12T01:51:32;8.13;;;4.38;;
23388;SDS011;11867;51.198;11.966;2023-08-12T01:52:55;11.35;;;4.80;;
23388;SDS011;11867;51.198;11.966;2023-08-12T01:54:18;8.07;;;5.07;;
23388;SDS011;11867;51.198;11.966;2023-08-12T01:55:42;9.70;;;5.15;;
23388;SDS011;11867;51.198;11.966;2023-08-12T01:57:05;6.32;;;4.60;;
23388;SDS011;11867;51.198;11.966;2023-08-12T01:58:30;6.05;;;4.50;;
23388;SDS011;11867;51.198;11.966;2023-08-12T01:59:52;7.18;;;4.82;;
23388;SDS011;11867;51.198;11.966;2023-08-12T02:01:15;8.68;;;4.80;;
23388;SDS011;11867;51.198;11.966;2023-08-12T02:02:37;8.35;;;4.63;;
23388;SDS011;11867;51.198;11.966;2023-08-12T02:04:00;7.30;;;4.47;;
23388;SDS011;11867;51.198;11.966;2023-08-12T02:05:23;7.70;;;4.15;;
23388;SDS011;11867;51.198;11.966;2023-08-12T02:06:46;8.07;;;4.32;;
23388;SDS011;11867;51.198;11.966;2023-08-12T02:08:08;6.45;;;4.03;;
23388;SDS011;11867;51.198;11.966;2023-08-12T02:09:33;7.70;;;4.70;;
23388;SDS011;11867;51.198;11.966;2023-08-12T02:10:55;7.35;;;4.35;;
23388;SDS011;11867;51.198;11.966;2023-08-12T02:12:18;5.85;;;4.13;;
23388;SDS011;11867;51.198;11.966;2023-08-12T02:13:40;4.93;;;4.18;;
23388;SDS011;11867;51.198;11.966;2023-08-12T02:15:04;8.13;;;4.15;;
23388;SDS011;11867;51.198;11.966;2023-08-12T02:16:27;6.07;;;4.57;;
23388;SDS011;11867;51.198;11.966;2023-08-12T02:17:50;5.97;;;3.88;;
23388;SDS011;11867;51.198;11.966;2023-08-12T02:19:12;5.57;;;3.97;;
23388;SDS011;11867;51.198;11.966;2023-08-12T02:20:35;7.35;;;4.43;;
23388;SDS011;11867;51.198;11.966;2023-08-12T02:21:57;6.18;;;4.30;;
23388;SDS011;11867;51.198;11.966;2023-08-12T02:23:21;6.18;;;4.32;;
23388;SDS011;11867;51.198;11.966;2023-08-12T02:24:45;6.05;;;4.10;;
23388;SDS011;11867;51.198;11.966;2023-08-12T02:26:08;7.03;;;4.20;;
23388;SDS011;11867;51.198;11.966;2023-08-12T02:27:30;4.05;;;3.65;;
23388;SDS011;11867;51.198;11.966;2023-08-12T02:28:53;4.97;;;3.92;;
23388;SDS011;11867;51.198;11.966;2023-08-12T02:30:15;5.05;;;4.00;;
23388;SDS011;11867;51.198;11.966;2023-08-12T02:31:38;4.65;;;4.25;;
23388;SDS011;11867;51.198;11.966;2023-08-12T02:33:01;7.30;;;3.78;;
23388;SDS011;11867;51.198;11.966;2023-08-12T02:34:24;6.20;;;4.13;;
23388;SDS011;11867;51.198;11.966;2023-08-12T02:35:46;6.57;;;4.18;;
23388;SDS011;11867;51.198;11.966;2023-08-12T02:37:09;4.05;;;3.75;;
23388;SDS011;11867;51.198;11.966;2023-08-12T02:38:32;5.47;;;4.13;;
23388;SDS011;11867;51.198;11.966;2023-08-12T02:39:56;5.55;;;4.05;;
23388;SDS011;11867;51.198;11.966;2023-08-12T02:41:18;4.78;;;4.05;;
23388;SDS011;11867;51.198;11.966;2023-08-12T02:42:41;6.15;;;4.10;;
23388;SDS011;11867;51.198;11.966;2023-08-12T02:44:03;8.27;;;4.50;;
23388;SDS011;11867;51.198;11.966;2023-08-12T02:45:27;4.28;;;3.88;;
23388;SDS011;11867;51.198;11.966;2023-08-12T02:46:49;5.13;;;3.85;;
23388;SDS011;11867;51.198;11.966;2023-08-12T02:48:12;4.57;;;4.15;;
23388;SDS011;11867;51.198;11.966;2023-08-12T02:49:34;5.68;;;4.20;;
23388;SDS011;11867;51.198;11.966;2023-08-12T02:50:57;5.95;;;3.72;;
23388;SDS011;11867;51.198;11.966;2023-08-12T02:52:19;6.65;;;3.88;;
23388;SDS011;11867;51.198;11.966;2023-08-12T02:53:42;8.10;;;4.10;;
23388;SDS011;11867;51.198;11.966;2023-08-12T02:55:06;4.30;;;3.50;;
23388;SDS011;11867;51.198;11.966;2023-08-12T02:56:30;10.32;;;4.53;;
23388;SDS011;11867;51.198;11.966;2023-08-12T02:57:52;7.75;;;4.07;;
23388;SDS011;11867;51.198;11.966;2023-08-12T02:59:15;4.25;;;3.58;;
23388;SDS011;11867;51.198;11.966;2023-08-12T03:00:40;6.47;;;4.35;;
23388;SDS011;11867;51.198;11.966;2023-08-12T03:02:05;5.63;;;3.60;;
23388;SDS011;11867;51.198;11.966;2023-08-12T03:03:27;3.90;;;3.53;;
23388;SDS011;11867;51.198;11.966;2023-08-12T03:04:50;4.55;;;3.92;;
23388;SDS011;11867;51.198;11.966;2023-08-12T03:06:13;5.00;;;3.70;;
23388;SDS011;11867;51.198;11.966;2023-08-12T03:07:36;5.25;;;3.72;;
23388;SDS011;11867;51.198;11.966;2023-08-12T03:08:58;3.90;;;3.45;;
23388;SDS011;11867;51.198;11.966;2023-08-12T03:10:23;5.55;;;3.95;;
23388;SDS011;11867;51.198;11.966;2023-08-12T03:11:45;4.55;;;4.15;;
23388;SDS011;11867;51.198;11.966;2023-08-12T03:13:08;3.50;;;3.20;;
23388;SDS011;11867;51.198;11.966;2023-08-12T03:14:31;4.55;;;3.75;;
23388;SDS011;11867;51.198;11.966;2023-08-12T03:15:54;4.15;;;3.55;;
23388;SDS011;11867;51.198;11.966;2023-08-12T03:17:16;4.70;;;3.97;;
23388;SDS011;11867;51.198;11.966;2023-08-12T03:18:39;4.97;;;3.47;;
23388;SDS011;11867;51.198;11.966;2023-08-12T03:20:02;8.18;;;3.63;;
23388;SDS011;11867;51.198;11.966;2023-08-12T03:21:27;6.40;;;3.67;;
23388;SDS011;11867;51.198;11.966;2023-08-12T03:22:49;4.97;;;4.30;;
23388;SDS011;11867;51.198;11.966;2023-08-12T03:24:12;4.70;;;4.00;;
23388;SDS011;11867;51.198;11.966;2023-08-12T03:25:36;6.32;;;3.60;;
23388;SDS011;11867;51.198;11.966;2023-08-12T03:26:59;6.63;;;4.03;;
23388;SDS011;11867;51.198;11.966;2023-08-12T03:28:21;6.15;;;3.95;;
23388;SDS011;11867;51.198;11.966;2023-08-12T03:29:44;4.30;;;3.90;;
23388;SDS011;11867;51.198;11.966;2023-08-12T03:31:06;5.15;;;3.55;;
23388;SDS011;11867;51.198;11.966;2023-08-12T03:32:30;4.10;;;3.63;;
23388;SDS011;11867;51.198;11.966;2023-08-12T03:33:52;6.90;;;4.00;;
23388;SDS011;11867;51.198;11.966;2023-08-12T03:35:16;5.88;;;3.70;;
23388;SDS011;11867;51.198;11.966;2023-08-12T03:36:40;4.43;;;4.03;;
23388;SDS011;11867;51.198;11.966;2023-08-12T03:38:03;5.82;;;3.55;;
23388;SDS011;11867;51.198;11.966;2023-08-12T03:39:25;3.92;;;3.38;;
23388;SDS011;11867;51.198;11.966;2023-08-12T03:40:50;4.45;;;3.50;;
23388;SDS011;11867;51.198;11.966;2023-08-12T03:42:12;4.00;;;3.60;;
23388;SDS011;11867;51.198;11.966;2023-08-12T03:43:36;6.38;;;4.35;;
23388;SDS011;11867;51.198;11.966;2023-08-12T03:44:59;5.70;;;4.00;;
23388;SDS011;11867;51.198;11.966;2023-08-12T03:46:22;4.28;;;3.88;;
23388;SDS011;11867;51.198;11.966;2023-08-12T03:47:44;4.10;;;3.72;;
23388;SDS011;11867;51.198;11.966;2023-08-12T03:49:07;4.90;;;3.85;;
23388;SDS011;11867;51.198;11.966;2023-08-12T03:50:32;5.07;;;4.22;;
23388;SDS011;11867;51.198;11.966;2023-08-12T03:51:56;7.60;;;3.70;;
23388;SDS011;11867;51.198;11.966;2023-08-12T03:53:18;5.97;;;3.97;;
23388;SDS011;11867;51.198;11.966;2023-08-12T03:54:41;5.95;;;3.65;;
23388;SDS011;11867;51.198;11.966;2023-08-12T03:56:05;6.35;;;4.18;;
23388;SDS011;11867;51.198;11.966;2023-08-12T03:57:28;5.20;;;3.70;;
23388;SDS011;11867;51.198;11.966;2023-08-12T03:58:51;3.85;;;3.40;;
23388;SDS011;11867;51.198;11.966;2023-08-12T04:00:14;3.88;;;3.50;;
23388;SDS011;11867;51.198;11.966;2023-08-12T04:01:38;4.35;;;3.72;;
23388;SDS011;11867;51.198;11.966;2023-08-12T04:03:01;4.20;;;3.80;;
23388;SDS011;11867;51.198;11.966;2023-08-12T04:04:24;4.25;;;3.85;;
23388;SDS011;11867;51.198;11.966;2023-08-12T04:05:48;7.90;;;4.63;;
23388;SDS011;11867;51.198;11.966;2023-08-12T04:07:10;4.20;;;3.80;;
23388;SDS011;11867;51.198;11.966;2023-08-12T04:08:34;8.15;;;3.75;;
23388;SDS011;11867;51.198;11.966;2023-08-12T04:09:56;5.10;;;4.00;;
23388;SDS011;11867;51.198;11.966;2023-08-12T04:11:21;4.95;;;4.00;;
23388;SDS011;11867;51.198;11.966;2023-08-12T04:12:43;5.35;;;3.90;;
23388;SDS011;11867;51.198;11.966;2023-08-12T04:14:06;4.88;;;3.97;;
23388;SDS011;11867;51.198;11.966;2023-08-12T04:15:29;5.30;;;4.25;;
23388;SDS011;11867;51.198;11.966;2023-08-12T04:16:52;4.10;;;3.70;;
23388;SDS011;11867;51.198;11.966;2023-08-12T04:18:14;7.10;;;4.50;;
23388;SDS011;11867;51.198;11.966;2023-08-12T04:19:37;7.03;;;4.15;;
23388;SDS011;11867;51.198;11.966;2023-08-12T04:20:59;5.05;;;3.90;;
23388;SDS011;11867;51.198;11.966;2023-08-12T04:22:23;4.10;;;3.70;;
23388;SDS011;11867;51.198;11.966;2023-08-12T04:23:45;7.18;;;3.95;;
23388;SDS011;11867;51.198;11.966;2023-08-12T04:25:08;4.43;;;3.97;;
23388;SDS011;11867;51.198;11.966;2023-08-12T04:26:31;6.60;;;3.78;;
23388;SDS011;11867;51.198;11.966;2023-08-12T04:27:55;4.43;;;4.00;;
23388;SDS011;11867;51.198;11.966;2023-08-12T04:29:17;4.55;;;4.07;;
23388;SDS011;11867;51.198;11.966;2023-08-12T04:30:40;8.50;;;5.00;;
23388;SDS011;11867;51.198;11.966;2023-08-12T04:32:04;4.43;;;4.03;;
23388;SDS011;11867;51.198;11.966;2023-08-12T04:33:27;8.13;;;4.18;;
23388;SDS011;11867;51.198;11.966;2023-08-12T04:34:50;9.05;;;3.70;;
23388;SDS011;11867;51.198;11.966;2023-08-12T04:36:13;5.88;;;4.20;;
23388;SDS011;11867;51.198;11.966;2023-08-12T04:37:35;4.63;;;3.78;;
23388;SDS011;11867;51.198;11.966;2023-08-12T04:38:59;5.78;;;3.90;;
23388;SDS011;11867;51.198;11.966;2023-08-12T04:40:21;5.78;;;4.03;;
23388;SDS011;11867;51.198;11.966;2023-08-12T04:41:46;5.32;;;3.85;;
23388;SDS011;11867;51.198;11.966;2023-08-12T04:43:08;7.22;;;4.53;;
23388;SDS011;11867;51.198;11.966;2023-08-12T04:44:35;5.05;;;4.05;;
23388;SDS011;11867;51.198;11.966;2023-08-12T04:45:57;4.53;;;3.53;;
23388;SDS011;11867;51.198;11.966;2023-08-12T04:47:21;4.95;;;4.00;;
23388;SDS011;11867;51.198;11.966;2023-08-12T04:48:48;5.25;;;3.88;;
23388;SDS011;11867;51.198;11.966;2023-08-12T04:50:11;5.20;;;3.80;;
23388;SDS011;11867;51.198;11.966;2023-08-12T04:51:34;6.28;;;4.72;;
23388;SDS011;11867;51.198;11.966;2023-08-12T04:52:57;5.80;;;3.97;;
23388;SDS011;11867;51.198;11.966;2023-08-12T04:54:19;4.35;;;3.63;;
23388;SDS011;11867;51.198;11.966;2023-08-12T04:55:42;4.20;;;3.70;;
23388;SDS011;11867;51.198;11.966;2023-08-12T04:57:09;4.05;;;3.65;;
23388;SDS011;11867;51.198;11.966;2023-08-12T04:58:33;6.60;;;3.80;;
23388;SDS011;11867;51.198;11.966;2023-08-12T04:59:55;4.30;;;3.90;;
23388;SDS011;11867;51.198;11.966;2023-08-12T05:01:18;4.40;;;3.67;;
23388;SDS011;11867;51.198;11.966;2023-08-12T05:02:40;4.80;;;4.13;;
23388;SDS011;11867;51.198;11.966;2023-08-12T05:04:04;6.00;;;3.95;;
23388;SDS011;11867;51.198;11.966;2023-08-12T05:05:27;4.25;;;3.50;;
23388;SDS011;11867;51.198;11.966;2023-08-12T05:06:53;4.60;;;3.88;;
23388;SDS011;11867;51.198;11.966;2023-08-12T05:08:15;4.25;;;3.85;;
23388;SDS011;11867;51.198;11.966;2023-08-12T05:09:39;7.15;;;3.47;;
23388;SDS011;11867;51.198;11.966;2023-08-12T05:11:06;4.82;;;4.10;;
23388;SDS011;11867;51.198;11.966;2023-08-12T05:12:43;7.10;;;3.53;;
23388;SDS011;11867;51.198;11.966;2023-08-12T05:14:12;7.10;;;4.03;;
23388;SDS011;11867;51.198;11.966;2023-08-12T05:16:03;6.55;;;4.30;;
23388;SDS011;11867;51.198;11.966;2023-08-12T05:17:54;8.02;;;4.60;;
23388;SDS011;11867;51.198;11.966;2023-08-12T05:19:34;6.05;;;4.40;;
23388;SDS011;11867;51.198;11.966;2023-08-12T05:21:09;5.88;;;3.97;;
23388;SDS011;11867;51.198;11.966;2023-08-12T05:23:00;5.07;;;4.07;;
23388;SDS011;11867;51.198;11.966;2023-08-12T05:24:41;5.20;;;4.13;;
23388;SDS011;11867;51.198;11.966;2023-08-12T05:26:28;5.05;;;3.92;;
23388;SDS011;11867;51.198;11.966;2023-08-12T05:28:12;5.63;;;3.72;;
23388;SDS011;11867;51.198;11.966;2023-08-12T05:29:36;5.28;;;4.15;;
23388;SDS011;11867;51.198;11.966;2023-08-12T05:31:14;4.07;;;3.78;;
23388;SDS011;11867;51.198;11.966;2023-08-12T05:32:41;5.05;;;3.85;;
23388;SDS011;11867;51.198;11.966;2023-08-12T05:34:06;5.60;;;3.75;;
23388;SDS011;11867;51.198;11.966;2023-08-12T05:35:36;4.68;;;3.88;;
23388;SDS011;11867;51.198;11.966;2023-08-12T05:37:00;4.15;;;3.83;;
23388;SDS011;11867;51.198;11.966;2023-08-12T05:38:30;5.25;;;4.10;;
23388;SDS011;11867;51.198;11.966;2023-08-12T05:39:55;4.43;;;3.95;;
23388;SDS011;11867;51.198;11.966;2023-08-12T05:41:35;6.57;;;4.13;;
23388;SDS011;11867;51.198;11.966;2023-08-12T05:43:00;5.38;;;4.18;;
23388;SDS011;11867;51.198;11.966;2023-08-12T05:46:08;9.95;;;4.22;;
23388;SDS011;11867;51.198;11.966;2023-08-12T05:47:32;7.20;;;4.45;;
23388;SDS011;11867;51.198;11.966;2023-08-12T05:48:59;7.15;;;3.78;;
23388;SDS011;11867;51.198;11.966;2023-08-12T05:50:25;6.07;;;4.05;;
23388;SDS011;11867;51.198;11.966;2023-08-12T05:52:04;4.82;;;3.97;;
23388;SDS011;11867;51.198;11.966;2023-08-12T05:53:34;12.30;;;4.65;;
23388;SDS011;11867;51.198;11.966;2023-08-12T05:54:57;5.88;;;3.92;;
23388;SDS011;11867;51.198;11.966;2023-08-12T05:56:24;9.15;;;4.72;;
23388;SDS011;11867;51.198;11.966;2023-08-12T05:57:51;4.57;;;4.03;;
23388;SDS011;11867;51.198;11.966;2023-08-12T05:59:18;4.45;;;4.05;;
23388;SDS011;11867;51.198;11.966;2023-08-12T06:00:46;10.27;;;4.13;;
23388;SDS011;11867;51.198;11.966;2023-08-12T06:02:18;7.00;;;4.63;;
23388;SDS011;11867;51.198;11.966;2023-08-12T06:03:55;5.82;;;4.32;;
23388;SDS011;11867;51.198;11.966;2023-08-12T06:05:18;7.43;;;3.83;;
23388;SDS011;11867;51.198;11.966;2023-08-12T06:06:41;5.22;;;4.30;;
23388;SDS011;11867;51.198;11.966;2023-08-12T06:08:04;7.30;;;3.95;;
23388;SDS011;11867;51.198;11.966;2023-08-12T06:09:27;5.15;;;3.88;;
23388;SDS011;11867;51.198;11.966;2023-08-12T06:10:50;5.65;;;3.80;;
23388;SDS011;11867;51.198;11.966;2023-08-12T06:12:12;7.45;;;3.92;;
23388;SDS011;11867;51.198;11.966;2023-08-12T06:13:35;7.72;;;4.13;;
23388;SDS011;11867;51.198;11.966;2023-08-12T06:14:58;4.65;;;3.85;;
23388;SDS011;11867;51.198;11.966;2023-08-12T06:16:24;5.13;;;4.40;;
23388;SDS011;11867;51.198;11.966;2023-08-12T06:17:46;5.20;;;4.03;;
23388;SDS011;11867;51.198;11.966;2023-08-12T06:19:09;6.30;;;3.58;;
23388;SDS011;11867;51.198;11.966;2023-08-12T06:20:32;6.85;;;3.72;;
23388;SDS011;11867;51.198;11.966;2023-08-12T06:21:56;5.13;;;4.10;;
23388;SDS011;11867;51.198;11.966;2023-08-12T06:23:19;6.55;;;4.63;;
23388;SDS011;11867;51.198;11.966;2023-08-12T06:24:44;7.35;;;4.38;;
23388;SDS011;11867;51.198;11.966;2023-08-12T06:26:06;8.73;;;3.97;;
23388;SDS011;11867;51.198;11.966;2023-08-12T06:27:30;4.90;;;3.90;;
23388;SDS011;11867;51.198;11.966;2023-08-12T06:28:52;7.93;;;4.10;;
23388;SDS011;11867;51.198;11.966;2023-08-12T06:30:15;8.18;;;4.65;;
23388;SDS011;11867;51.198;11.966;2023-08-12T06:31:39;6.85;;;4.13;;
23388;SDS011;11867;51.198;11.966;2023-08-12T06:33:02;4.97;;;3.60;;
23388;SDS011;11867;51.198;11.966;2023-08-12T06:34:25;5.68;;;3.80;;
23388;SDS011;11867;51.198;11.966;2023-08-12T06:35:48;5.95;;;4.43;;
23388;SDS011;11867;51.198;11.966;2023-08-12T06:37:13;7.18;;;4.53;;
23388;SDS011;11867;51.198;11.966;2023-08-12T06:38:36;5.03;;;3.95;;
23388;SDS011;11867;51.198;11.966;2023-08-12T06:39:58;6.22;;;4.10;;
23388;SDS011;11867;51.198;11.966;2023-08-12T06:41:22;4.38;;;3.97;;
23388;SDS011;11867;51.198;11.966;2023-08-12T06:42:45;7.47;;;4.00;;
23388;SDS011;11867;51.198;11.966;2023-08-12T06:44:10;8.73;;;4.68;;
23388;SDS011;11867;51.198;11.966;2023-08-12T06:45:39;5.20;;;3.83;;
23388;SDS011;11867;51.198;11.966;2023-08-12T06:47:07;6.70;;;4.22;;
23388;SDS011;11867;51.198;11.966;2023-08-12T06:48:32;8.88;;;4.30;;
23388;SDS011;11867;51.198;11.966;2023-08-12T06:49:58;4.63;;;3.88;;
23388;SDS011;11867;51.198;11.966;2023-08-12T06:51:23;5.35;;;3.80;;
23388;SDS011;11867;51.198;11.966;2023-08-12T06:52:46;6.38;;;4.07;;
23388;SDS011;11867;51.198;11.966;2023-08-12T06:54:10;5.57;;;4.20;;
23388;SDS011;11867;51.198;11.966;2023-08-12T06:55:34;4.53;;;4.07;;
23388;SDS011;11867;51.198;11.966;2023-08-12T06:56:57;5.20;;;4.03;;
23388;SDS011;11867;51.198;11.966;2023-08-12T06:58:19;5.22;;;3.85;;
23388;SDS011;11867;51.198;11.966;2023-08-12T06:59:42;5.55;;;3.95;;
23388;SDS011;11867;51.198;11.966;2023-08-12T07:01:05;5.15;;;4.03;;
23388;SDS011;11867;51.198;11.966;2023-08-12T07:02:30;6.97;;;4.88;;
23388;SDS011;11867;51.198;11.966;2023-08-12T07:03:52;7.22;;;3.90;;
23388;SDS011;11867;51.198;11.966;2023-08-12T07:05:16;5.22;;;3.83;;
23388;SDS011;11867;51.198;11.966;2023-08-12T07:06:38;6.38;;;3.95;;
23388;SDS011;11867;51.198;11.966;2023-08-12T07:08:16;6.90;;;4.22;;
23388;SDS011;11867;51.198;11.966;2023-08-12T07:09:53;6.25;;;4.18;;
23388;SDS011;11867;51.198;11.966;2023-08-12T07:11:20;4.63;;;3.70;;
23388;SDS011;11867;51.198;11.966;2023-08-12T07:13:09;4.55;;;4.10;;
23388;SDS011;11867;51.198;11.966;2023-08-12T07:14:47;7.47;;;4.10;;
23388;SDS011;11867;51.198;11.966;2023-08-12T07:16:10;7.68;;;3.95;;
23388;SDS011;11867;51.198;11.966;2023-08-12T07:17:37;5.30;;;4.05;;
23388;SDS011;11867;51.198;11.966;2023-08-12T07:19:05;6.50;;;4.20;;
23388;SDS011;11867;51.198;11.966;2023-08-12T07:20:29;5.30;;;3.72;;
23388;SDS011;11867;51.198;11.966;2023-08-12T07:21:51;4.03;;;3.40;;
23388;SDS011;11867;51.198;11.966;2023-08-12T07:23:15;6.75;;;3.55;;
23388;SDS011;11867;51.198;11.966;2023-08-12T07:24:40;3.97;;;3.67;;
23388;SDS011;11867;51.198;11.966;2023-08-12T07:26:03;11.90;;;4.20;;
23388;SDS011;11867;51.198;11.966;2023-08-12T07:27:26;7.60;;;4.35;;
23388;SDS011;11867;51.198;11.966;2023-08-12T07:29:04;4.78;;;3.80;;
23388;SDS011;11867;51.198;11.966;2023-08-12T07:30:27;4.70;;;4.10;;
23388;SDS011;11867;51.198;11.966;2023-08-12T07:31:51;5.28;;;3.80;;
23388;SDS011;11867;51.198;11.966;2023-08-12T07:33:16;5.90;;;4.15;;
23388;SDS011;11867;51.198;11.966;2023-08-12T07:34:44;4.93;;;4.22;;
23388;SDS011;11867;51.198;11.966;2023-08-12T07:36:11;5.93;;;3.20;;
23388;SDS011;11867;51.198;11.966;2023-08-12T07:37:33;5.88;;;3.75;;
23388;SDS011;11867;51.198;11.966;2023-08-12T07:38:57;3.45;;;3.15;;
23388;SDS011;11867;51.198;11.966;2023-08-12T07:40:19;3.30;;;3.00;;
23388;SDS011;11867;51.198;11.966;2023-08-12T07:41:45;3.40;;;3.08;;
23388;SDS011;11867;51.198;11.966;2023-08-12T07:43:08;3.10;;;2.80;;
23388;SDS011;11867;51.198;11.966;2023-08-12T07:44:32;4.68;;;2.70;;
23388;SDS011;11867;51.198;11.966;2023-08-12T07:45:58;4.70;;;3.00;;
23388;SDS011;11867;51.198;11.966;2023-08-12T07:47:31;4.97;;;3.08;;
23388;SDS011;11867;51.198;11.966;2023-08-12T07:49:02;3.00;;;2.70;;
23388;SDS011;11867;51.198;11.966;2023-08-12T07:50:27;4.38;;;2.70;;
23388;SDS011;11867;51.198;11.966;2023-08-12T07:51:50;3.72;;;2.92;;
23388;SDS011;11867;51.198;11.966;2023-08-12T07:53:19;5.50;;;3.42;;
23388;SDS011;11867;51.198;11.966;2023-08-12T07:54:42;3.95;;;2.80;;
23388;SDS011;11867;51.198;11.966;2023-08-12T07:56:07;3.67;;;2.58;;
23388;SDS011;11867;51.198;11.966;2023-08-12T07:57:31;3.25;;;2.97;;
23388;SDS011;11867;51.198;11.966;2023-08-12T07:58:54;3.30;;;2.72;;
23388;SDS011;11867;51.198;11.966;2023-08-12T08:00:18;3.22;;;2.58;;
23388;SDS011;11867;51.198;11.966;2023-08-12T08:01:41;3.03;;;2.78;;
23388;SDS011;11867;51.198;11.966;2023-08-12T08:03:07;4.28;;;3.00;;
23388;SDS011;11867;51.198;11.966;2023-08-12T08:04:33;2.80;;;2.60;;
23388;SDS011;11867;51.198;11.966;2023-08-12T08:05:56;2.67;;;2.47;;
23388;SDS011;11867;51.198;11.966;2023-08-12T08:07:18;2.83;;;2.60;;
23388;SDS011;11867;51.198;11.966;2023-08-12T08:08:41;3.22;;;2.67;;
23388;SDS011;11867;51.198;11.966;2023-08-12T08:10:04;3.15;;;2.63;;
23388;SDS011;11867;51.198;11.966;2023-08-12T08:11:29;3.20;;;2.78;;
23388;SDS011;11867;51.198;11.966;2023-08-12T08:12:55;3.30;;;2.40;;
23388;SDS011;11867;51.198;11.966;2023-08-12T08:14:26;4.90;;;3.08;;
23388;SDS011;11867;51.198;11.966;2023-08-12T08:15:49;3.25;;;2.92;;
23388;SDS011;11867;51.198;11.966;2023-08-12T08:17:19;3.40;;;3.10;;
23388;SDS011;11867;51.198;11.966;2023-08-12T08:18:42;3.30;;;2.85;;
23388;SDS011;11867;51.198;11.966;2023-08-12T08:20:10;4.90;;;2.78;;
23388;SDS011;11867;51.198;11.966;2023-08-12T08:21:34;3.10;;;2.80;;
23388;SDS011;11867;51.198;11.966;2023-08-12T08:23:02;3.20;;;2.70;;
23388;SDS011;11867;51.198;11.966;2023-08-12T08:24:24;3.67;;;3.20;;
23388;SDS011;11867;51.198;11.966;2023-08-12T08:25:48;3.80;;;3.22;;